РПИ Баку

Район полетной информации Баку (UBBA) обеспечивает организацию воздушного движения в воздушном пространстве Азербайджана в сети VATSIM.

В состав РПИ входит пять международных аэропортов, четыре аэропорта совместного базирования, и четыре военных аэропорта.

Первого апреля 1996 года по решению дирекции Государственного концерна ГА под эгидой ICAO и Европейского банка развития создано предприятие аэронавигационного обслуживания  «Азераэронавигация» (AZANS) получившее статус юридической самостоятельности первым из структурных подразделений Государственного Концерна «Азербайджан Хава Йоллары». Абсолютной  задачей нового предприятия стало обеспечение безопасности полетов в воздушном пространстве Азербайджанской Республики с возложением функции обслуживания и координации воздушного движения.

С целью готовности к обслуживанию постоянно растущего потока воздушного движения на должном уровне и в соответствии с международными требованиями и стандартами был разработан широкоформатный проект нового здания Управления Воздушного Движения «Азераэронавигация» и Главного Центра ЕС УВД, и в 2012 году начато сооружение комплекса с Вышкой высотой 65 метров. В новом Центре будут применены современные технологии и достижения технического развития с прогнозом на будущее, такие как автоматизированные системы УВД производителя из Испании «ИНДРА», OLDİ, Searidge camera Surveillance Technologies AMHS,  ADS-B, A-SMGCS и т.д.

Руководитель РПИ

Grigori Badalov*

Инструкторы РПИ
George Kalandadze * (Senior Student)
Grigori Badalov (Instructor)
Входит в состав
ЗЦ Ростов-на-Дону

Диспетчеры РПИ

Диспетчер Рейтинг Допуски *
Grigori Badalov Instructor UBBA_CTR
Ivan Chernov Senior Controller UBBA_CTR
Valeriy Polostyanoy Instructor UBBA_CTR
Gregory Adamov Student 2 UBBB_TWR

Аэропорты РПИ

ICAO Город Название Погода
UBBB Баку Баку UBBB 161830Z 10006KT CAVOK 05/M01 Q1017 NOSIG
UBBQ Габала Габала UBBQ 161800Z 06004KT 9999 BKN180 M04/M07 Q1016 NOSIG RMK MT OP
UBBG Гянджа Гянджа UBBG 161830Z 20004KT 160V280 9999 SCT100 M02/M11 Q1016 NOSIG
UBBN Нахичевань Нахичевань UBBN 161830Z 10008KT 9999 SCT040 OVC080 M05/M07 Q1013 NOSIG RMK MT OP QFE685
UBBL Ленкорань Ленкорань UBBL 161800Z 23008KT 9999 OVC048 05/M04 Q1018 NOSIG RMK MT OP